Time;durP1;ratioP1;P1;durP2;ratioP2;P2;SDS_P1;SDS_P2;PMS_P1;PMS_P2;Temp;Humidity;BMP_temperature;BMP_pressure;BME280_temperature;BME280_humidity;BME280_pressure;Samples;Min_cycle;Max_cycle;Signal;HPM_P1;HPM_P2
2023/07/17 00:00:12;;;;;;;6.93;3.92;;;;;;;16.72;100.00;101197.53;5011600;28;20511;-47
2023/07/17 00:02:38;;;;;;;8.43;4.00;;;;;;;16.76;100.00;101202.69;5011459;28;20183;-48
2023/07/17 00:05:04;;;;;;;6.88;3.70;;;;;;;16.80;100.00;101212.41;5010367;28;20401;-49
2023/07/17 00:07:30;;;;;;;8.10;3.67;;;;;;;16.77;100.00;101215.28;5011708;28;20184;-50
2023/07/17 00:09:56;;;;;;;5.43;3.80;;;;;;;16.73;100.00;101205.56;5011653;28;20640;-52
2023/07/17 00:12:22;;;;;;;7.20;4.30;;;;;;;16.68;100.00;101202.25;5011668;28;20177;-48
2023/07/17 00:14:47;;;;;;;7.28;3.88;;;;;;;16.59;100.00;101200.94;5011425;28;20200;-49
2023/07/17 00:17:14;;;;;;;4.72;3.80;;;;;;;16.63;100.00;101191.69;5009965;28;20238;-50
2023/07/17 00:19:39;;;;;;;10.23;4.70;;;;;;;16.60;100.00;101191.03;5009879;28;20188;-48
2023/07/17 00:22:08;;;;;;;6.60;4.07;;;;;;;16.60;100.00;101194.59;5011252;28;20179;-50
2023/07/17 00:24:34;;;;;;;8.10;4.35;;;;;;;16.62;100.00;101191.81;5011058;28;20160;-49
2023/07/17 00:26:59;;;;;;;7.28;4.40;;;;;;;16.69;100.00;101188.63;5011141;28;20581;-51
2023/07/17 00:29:28;;;;;;;7.75;3.97;;;;;;;16.65;100.00;101192.47;5011332;28;21035;-48
2023/07/17 00:31:55;;;;;;;10.52;3.80;;;;;;;16.52;100.00;101185.16;5010976;28;20179;-50
2023/07/17 00:34:20;;;;;;;8.07;4.13;;;;;;;16.50;100.00;101192.50;5010735;28;20674;-48
2023/07/17 00:36:47;;;;;;;7.55;3.90;;;;;;;16.39;100.00;101191.28;5010220;28;20208;-47
2023/07/17 00:39:18;;;;;;;7.05;3.85;;;;;;;16.44;100.00;101194.59;5009706;28;20252;-50
2023/07/17 00:41:44;;;;;;;5.80;4.10;;;;;;;16.39;100.00;101190.41;5010936;28;20169;-49
2023/07/17 00:44:10;;;;;;;8.52;3.40;;;;;;;16.50;100.00;101189.78;5009476;28;20298;-50
2023/07/17 00:46:36;;;;;;;8.88;3.63;;;;;;;16.36;100.00;101186.03;5009335;28;20205;-48
2023/07/17 00:49:05;;;;;;;9.98;3.90;;;;;;;16.28;100.00;101185.59;5025699;28;20179;-50
2023/07/17 00:51:32;;;;;;;7.55;4.20;;;;;;;16.24;100.00;101186.72;5009250;28;20184;-50
2023/07/17 00:53:59;;;;;;;7.03;4.03;;;;;;;16.30;100.00;101196.34;5025651;28;20594;-47
2023/07/17 00:56:27;;;;;;;6.75;4.00;;;;;;;16.23;100.00;101185.88;5010706;28;20192;-49
2023/07/17 00:58:53;;;;;;;7.75;3.90;;;;;;;16.27;100.00;101186.56;5010588;28;20209;-47
2023/07/17 01:01:19;;;;;;;8.25;3.90;;;;;;;16.28;100.00;101189.16;5010388;28;20181;-49
2023/07/17 01:03:45;;;;;;;7.50;3.53;;;;;;;16.26;100.00;101187.50;5007876;28;20181;-48
2023/07/17 01:06:11;;;;;;;9.05;3.85;;;;;;;16.16;100.00;101189.88;5025474;28;20590;-50
2023/07/17 01:08:38;;;;;;;6.60;3.88;;;;;;;16.12;100.00;101192.84;5010633;28;20647;-52
2023/07/17 01:11:04;;;;;;;7.28;3.63;;;;;;;16.16;100.00;101198.00;5009007;28;20196;-47
2023/07/17 01:13:30;;;;;;;7.28;3.50;;;;;;;16.09;100.00;101182.19;5008825;28;20558;-46
2023/07/17 01:15:55;;;;;;;7.18;3.60;;;;;;;15.92;100.00;101186.72;5010200;28;20229;-50
2023/07/17 01:18:21;;;;;;;4.68;3.30;;;;;;;15.94;100.00;101187.50;5009969;28;20168;-50
2023/07/17 01:20:48;;;;;;;7.80;3.78;;;;;;;15.93;100.00;101180.31;5010270;28;20750;-52
2023/07/17 01:23:14;;;;;;;6.75;4.10;;;;;;;15.80;100.00;101187.38;5010206;28;20544;-47
2023/07/17 01:25:39;;;;;;;8.43;3.53;;;;;;;15.82;100.00;101180.91;5010090;28;20204;-49
2023/07/17 01:28:05;;;;;;;7.28;3.78;;;;;;;15.72;100.00;101190.50;5008705;28;20551;-49
2023/07/17 01:30:30;;;;;;;5.85;3.38;;;;;;;15.63;100.00;101193.63;5010068;28;20185;-49
2023/07/17 01:32:56;;;;;;;6.07;4.03;;;;;;;15.60;100.00;101186.56;5009926;28;20708;-50
2023/07/17 01:35:23;;;;;;;4.78;3.47;;;;;;;15.51;100.00;101187.06;5010206;28;20552;-48
2023/07/17 01:37:48;;;;;;;7.28;3.72;;;;;;;15.50;100.00;101182.59;5008546;28;20176;-50
2023/07/17 01:40:15;;;;;;;5.45;3.25;;;;;;;15.40;100.00;101184.94;5008385;28;20180;-48
2023/07/17 01:42:40;;;;;;;6.47;3.60;;;;;;;15.52;100.00;101188.81;5009834;28;20176;-46
2023/07/17 01:45:06;;;;;;;7.75;3.78;;;;;;;15.56;100.00;101190.38;5009633;28;20193;-52
2023/07/17 01:47:32;;;;;;;7.80;3.42;;;;;;;15.62;100.00;101176.56;5009419;28;20181;-46
2023/07/17 01:49:57;;;;;;;7.05;3.55;;;;;;;15.60;100.00;101183.00;5009646;28;20169;-50
2023/07/17 01:52:23;;;;;;;6.63;3.50;;;;;;;15.57;100.00;101183.19;5009996;28;20591;-50
2023/07/17 01:54:48;;;;;;;6.00;3.78;;;;;;;15.48;100.00;101192.66;5009595;28;20647;-48
2023/07/17 01:57:14;;;;;;;3.88;2.90;;;;;;;15.48;100.00;101186.34;5009581;28;20231;-50
2023/07/17 01:59:39;;;;;;;7.10;3.03;;;;;;;15.52;100.00;101186.09;5008218;28;20306;-48
2023/07/17 02:02:05;;;;;;;5.55;3.40;;;;;;;15.57;100.00;101181.34;5007864;28;20211;-49
2023/07/17 02:04:31;;;;;;;4.88;3.13;;;;;;;15.53;100.00;101185.16;5008029;28;20196;-48
2023/07/17 02:06:57;;;;;;;5.75;3.00;;;;;;;15.59;100.00;101190.25;5007954;28;20173;-49
2023/07/17 02:09:25;;;;;;;8.85;3.03;;;;;;;15.54;100.00;101175.22;5007976;28;20202;-48
2023/07/17 02:11:51;;;;;;;5.55;2.88;;;;;;;15.66;100.00;101178.16;5009307;28;20185;-50
2023/07/17 02:14:16;;;;;;;8.15;3.47;;;;;;;15.59;100.00;101170.44;5009087;28;20266;-50
2023/07/17 02:16:42;;;;;;;8.55;3.60;;;;;;;15.65;100.00;101179.13;4991459;28;20196;-47
2023/07/17 02:19:08;;;;;;;5.47;3.50;;;;;;;15.66;100.00;101174.59;5009285;28;20276;-48
2023/07/17 02:21:33;;;;;;;5.65;2.95;;;;;;;15.71;100.00;101174.31;5009369;28;20194;-53
2023/07/17 02:23:59;;;;;;;7.03;3.13;;;;;;;15.71;100.00;101185.13;5024289;28;20172;-51
2023/07/17 02:26:25;;;;;;;6.55;3.20;;;;;;;15.72;100.00;101182.38;5007728;28;20250;-49
2023/07/17 02:28:51;;;;;;;7.30;3.20;;;;;;;15.69;100.00;101182.50;5009239;28;20255;-49
2023/07/17 02:31:16;;;;;;;7.50;3.20;;;;;;;15.75;100.00;101189.44;5009088;28;20208;-47
2023/07/17 02:33:42;;;;;;;8.93;3.45;;;;;;;15.73;100.00;101185.97;5007641;28;20255;-48
2023/07/17 02:36:09;;;;;;;5.60;3.25;;;;;;;15.76;100.00;101188.47;5024055;28;20274;-50
2023/07/17 02:38:34;;;;;;;7.80;3.35;;;;;;;15.73;100.00;101188.66;5009078;28;20181;-52
2023/07/17 02:41:00;;;;;;;5.63;3.22;;;;;;;15.80;100.00;101193.63;5009009;28;20263;-47
2023/07/17 02:43:27;;;;;;;7.38;3.33;;;;;;;15.77;100.00;101188.41;5008858;28;20231;-49
2023/07/17 02:45:52;;;;;;;10.02;3.13;;;;;;;15.88;100.00;101189.66;5008929;28;20188;-49
2023/07/17 02:48:18;;;;;;;5.07;3.10;;;;;;;15.85;100.00;101194.28;5007605;28;20272;-46
2023/07/17 02:50:43;;;;;;;8.48;3.47;;;;;;;15.93;100.00;101190.28;5009016;28;20164;-49
2023/07/17 02:53:09;;;;;;;7.75;3.42;;;;;;;15.94;100.00;101201.00;5023755;28;20712;-48
2023/07/17 02:55:34;;;;;;;7.45;2.90;;;;;;;16.02;100.00;101195.16;5008575;28;20216;-47
2023/07/17 02:57:59;;;;;;;9.20;3.28;;;;;;;15.86;100.00;101192.44;5008848;28;20171;-49
2023/07/17 03:00:25;;;;;;;7.38;3.33;;;;;;;15.86;100.00;101192.44;5011107;28;20268;-48
2023/07/17 03:02:51;;;;;;;6.30;3.00;;;;;;;15.91;100.00;101194.88;5011901;28;20184;-48
2023/07/17 03:05:16;;;;;;;10.82;3.35;;;;;;;15.76;100.00;101204.69;5012496;28;20200;-52
2023/07/17 03:07:47;;;;;;;8.70;3.55;;;;;;;15.82;100.00;101201.66;5012518;28;20177;-46
2023/07/17 03:10:13;;;;;;;8.32;3.38;;;;;;;15.80;100.00;101207.13;5012543;28;20246;-51
2023/07/17 03:12:38;;;;;;;11.32;3.70;;;;;;;15.69;100.00;101205.94;5011327;28;20523;-46
2023/07/17 03:15:05;;;;;;;9.38;3.80;;;;;;;15.78;100.00;101211.75;4994092;28;20211;-45
2023/07/17 03:17:32;;;;;;;9.73;3.60;;;;;;;15.69;100.00;101214.91;5011074;28;20177;-50
2023/07/17 03:19:58;;;;;;;11.43;3.45;;;;;;;15.64;100.00;101209.78;5011173;28;20245;-47
2023/07/17 03:22:24;;;;;;;9.95;3.63;;;;;;;15.56;100.00;101206.59;5011151;28;20268;-47
2023/07/17 03:24:49;;;;;;;9.15;3.60;;;;;;;15.55;100.00;101212.09;5010774;28;20509;-50
2023/07/17 03:27:15;;;;;;;7.40;3.55;;;;;;;15.50;100.00;101209.63;5010594;28;20223;-43
2023/07/17 03:29:41;;;;;;;8.77;3.80;;;;;;;15.59;100.00;101197.44;5010307;28;20177;-45
2023/07/17 03:32:08;;;;;;;8.05;3.75;;;;;;;15.52;100.00;101199.59;5027154;28;20229;-49
2023/07/17 03:34:35;;;;;;;8.90;3.83;;;;;;;15.49;100.00;101210.59;5010320;28;20251;-45
2023/07/17 03:37:00;;;;;;;8.23;3.50;;;;;;;15.60;100.00;101201.91;5027003;28;20554;-48
2023/07/17 03:39:26;;;;;;;9.95;4.03;;;;;;;15.64;100.00;101207.06;5010400;28;20758;-44
2023/07/17 03:41:51;;;;;;;8.30;3.42;;;;;;;15.49;100.00;101212.41;5026599;28;20670;-46
2023/07/17 03:44:16;;;;;;;8.20;3.67;;;;;;;15.50;100.00;101211.44;5026593;28;20635;-45
2023/07/17 03:46:43;;;;;;;9.63;3.80;;;;;;;15.34;100.00;101212.25;4993832;28;20261;-45
2023/07/17 03:49:08;;;;;;;9.82;3.95;;;;;;;15.26;100.00;101209.06;5010202;28;20220;-44
2023/07/17 03:51:34;;;;;;;9.73;4.60;;;;;;;15.27;100.00;101200.03;5009936;28;20175;-47
2023/07/17 03:54:00;;;;;;;8.38;3.55;;;;;;;15.39;100.00;101209.31;5011524;28;20175;-48
2023/07/17 03:56:25;;;;;;;7.95;4.20;;;;;;;15.32;100.00;101206.06;5009849;28;20216;-44
2023/07/17 03:58:51;;;;;;;8.02;3.90;;;;;;;15.25;100.00;101204.63;5011272;28;20252;-46
2023/07/17 04:01:16;;;;;;;10.95;4.07;;;;;;;15.25;100.00;101208.19;5011111;28;20674;-47
2023/07/17 04:03:45;;;;;;;9.77;4.93;;;;;;;15.26;100.00;101211.78;5026225;28;20282;-47
2023/07/17 04:06:11;;;;;;;10.48;4.40;;;;;;;15.30;100.00;101209.78;4993298;28;20203;-47
2023/07/17 04:08:37;;;;;;;8.60;4.28;;;;;;;15.34;100.00;101217.66;4994249;28;20601;-44
2023/07/17 04:11:04;;;;;;;7.72;3.95;;;;;;;15.20;100.00;101221.06;5010147;28;20173;-48
2023/07/17 04:13:29;;;;;;;12.85;4.13;;;;;;;15.23;100.00;101229.00;5010145;28;20686;-46
2023/07/17 04:15:55;;;;;;;10.50;4.93;;;;;;;15.21;100.00;101225.50;5009802;28;20222;-50
2023/07/17 04:18:20;;;;;;;8.50;4.32;;;;;;;15.22;100.00;101226.41;5010337;28;20175;-46
2023/07/17 04:20:47;;;;;;;9.95;4.80;;;;;;;15.24;100.00;101228.06;5009878;28;20199;-50
2023/07/17 04:23:13;;;;;;;10.52;4.75;;;;;;;15.39;100.00;101228.22;5011549;28;20169;-49
2023/07/17 04:25:45;;;;;;;7.78;4.93;;;;;;;15.37;100.00;101232.81;5009884;28;20295;-44
2023/07/17 04:28:11;;;;;;;8.73;4.90;;;;;;;15.39;100.00;101234.50;5011444;28;20223;-47
2023/07/17 04:30:37;;;;;;;10.13;5.28;;;;;;;15.46;100.00;101240.47;5011469;28;20173;-45
2023/07/17 04:33:04;;;;;;;9.55;4.97;;;;;;;15.42;100.00;101246.97;5010040;28;20627;-47
2023/07/17 04:35:35;;;;;;;8.82;5.10;;;;;;;15.43;100.00;101238.78;5009669;28;20274;-46
2023/07/17 04:38:01;;;;;;;9.13;5.90;;;;;;;15.49;100.00;101243.00;5010038;28;20172;-48
2023/07/17 04:40:29;;;;;;;7.63;4.75;;;;;;;15.55;100.00;101247.22;5009890;28;20242;-45
2023/07/17 04:42:55;;;;;;;8.30;5.25;;;;;;;15.55;100.00;101255.31;5009820;28;20541;-47
2023/07/17 04:45:21;;;;;;;8.75;5.60;;;;;;;15.46;100.00;101253.97;5011095;28;20187;-49
2023/07/17 04:47:48;;;;;;;11.18;5.35;;;;;;;15.51;100.00;101251.88;5026232;28;20170;-44
2023/07/17 04:50:14;;;;;;;10.35;4.90;;;;;;;15.57;100.00;101248.00;5011024;28;20223;-51
2023/07/17 04:52:40;;;;;;;10.70;4.95;;;;;;;15.55;100.00;101245.38;5010740;28;20173;-49
2023/07/17 04:55:06;;;;;;;11.18;5.43;;;;;;;15.51;100.00;101232.97;5009465;28;20211;-45
2023/07/17 04:57:31;;;;;;;8.38;5.63;;;;;;;15.41;100.00;101235.31;5006824;28;20181;-48
2023/07/17 04:59:57;;;;;;;8.30;5.43;;;;;;;15.43;100.00;101230.66;5002347;28;20185;-45
2023/07/17 05:02:23;;;;;;;10.90;5.75;;;;;;;15.44;100.00;101235.13;5021649;22;20292;-46
2023/07/17 05:04:48;;;;;;;7.20;5.70;;;;;;;15.36;100.00;101234.66;5000979;28;20678;-45
2023/07/17 05:07:16;;;;;;;8.05;5.65;;;;;;;15.41;100.00;101220.91;5011671;28;20215;-44
2023/07/17 05:09:41;;;;;;;7.13;5.25;;;;;;;15.44;100.00;101224.31;5023050;28;20181;-46
2023/07/17 05:12:07;;;;;;;9.05;5.05;;;;;;;15.37;100.00;101238.22;5006679;28;20691;-47
2023/07/17 05:14:34;;;;;;;11.68;6.25;;;;;;;15.34;100.00;101227.59;5022673;28;20603;-46
2023/07/17 05:17:00;;;;;;;8.82;5.75;;;;;;;15.33;100.00;101225.84;5006226;28;20180;-45
2023/07/17 05:19:25;;;;;;;8.05;5.78;;;;;;;15.29;100.00;101230.53;4990324;28;20316;-45
2023/07/17 05:21:51;;;;;;;10.77;5.95;;;;;;;15.21;100.00;101209.31;4989152;28;20193;-46
2023/07/17 05:24:16;;;;;;;11.77;5.82;;;;;;;15.19;100.00;101208.50;5007152;28;20246;-46
2023/07/17 05:26:42;;;;;;;10.90;5.80;;;;;;;15.25;100.00;101210.03;5011392;28;20211;-46
2023/07/17 05:29:08;;;;;;;8.25;5.50;;;;;;;15.28;100.00;101209.88;5023132;28;20180;-45
2023/07/17 05:31:34;;;;;;;8.52;5.88;;;;;;;15.28;100.00;101209.88;5006295;28;20253;-46
2023/07/17 05:33:59;;;;;;;8.15;5.55;;;;;;;15.28;100.00;101215.25;5006387;28;20199;-47
2023/07/17 05:36:27;;;;;;;8.55;5.65;;;;;;;15.31;100.00;101212.44;5007424;28;20196;-44
2023/07/17 05:38:52;;;;;;;11.98;6.20;;;;;;;15.31;100.00;101207.03;5007211;28;20673;-47
2023/07/17 05:41:17;;;;;;;10.82;6.00;;;;;;;15.49;100.00;101215.13;5008469;28;20188;-45
2023/07/17 05:43:44;;;;;;;10.60;6.05;;;;;;;15.39;100.00;101221.00;5009492;28;20176;-44
2023/07/17 05:46:12;;;;;;;10.57;5.75;;;;;;;15.51;100.00;101222.19;5007015;28;20265;-47
2023/07/17 05:48:38;;;;;;;8.82;6.07;;;;;;;15.57;100.00;101210.19;5010228;28;20546;-46
2023/07/17 05:51:03;;;;;;;7.75;5.80;;;;;;;15.68;100.00;101206.88;5007782;28;20168;-45
2023/07/17 05:53:29;;;;;;;9.45;6.10;;;;;;;15.77;100.00;101214.56;5005415;28;20404;-47
2023/07/17 05:55:54;;;;;;;7.53;5.35;;;;;;;15.92;100.00;101215.53;5004658;28;20658;-46
2023/07/17 05:58:21;;;;;;;8.85;5.88;;;;;;;16.03;100.00;101215.84;5004479;28;20208;-47
2023/07/17 06:00:46;;;;;;;8.10;5.32;;;;;;;15.97;100.00;101206.22;5003594;28;20180;-45
2023/07/17 06:03:12;;;;;;;9.30;6.25;;;;;;;15.90;100.00;101210.22;5020617;28;20226;-45
2023/07/17 06:05:38;;;;;;;9.38;5.80;;;;;;;16.11;100.00;101215.41;5008688;28;20216;-45
2023/07/17 06:08:04;;;;;;;8.18;5.53;;;;;;;16.26;100.00;101222.66;5007796;28;20168;-46
2023/07/17 06:10:30;;;;;;;8.18;5.30;;;;;;;16.42;100.00;101217.25;5007201;28;20206;-47
2023/07/17 06:12:55;;;;;;;7.00;5.65;;;;;;;16.47;100.00;101216.06;5006787;28;20212;-46
2023/07/17 06:15:21;;;;;;;8.52;5.57;;;;;;;16.67;100.00;101220.31;5006566;28;20566;-46
2023/07/17 06:17:46;;;;;;;9.73;5.18;;;;;;;16.82;100.00;101215.91;5006723;28;20211;-45
2023/07/17 06:20:12;;;;;;;6.68;4.55;;;;;;;17.14;100.00;101204.97;5007772;28;20184;-47
2023/07/17 06:22:37;;;;;;;8.15;5.38;;;;;;;17.16;100.00;101203.06;5006511;28;20541;-45
2023/07/17 06:25:03;;;;;;;9.82;5.55;;;;;;;17.57;100.00;101201.53;5002760;28;20574;-46
2023/07/17 06:27:29;;;;;;;9.85;4.65;;;;;;;17.60;100.00;101191.38;5008329;28;20188;-46
2023/07/17 06:29:54;;;;;;;8.48;4.90;;;;;;;17.73;100.00;101196.88;5002183;28;20176;-45
2023/07/17 06:32:20;;;;;;;5.75;3.60;;;;;;;17.84;100.00;101189.00;5004673;28;20181;-46
2023/07/17 06:34:45;;;;;;;6.18;3.60;;;;;;;18.02;100.00;101189.66;5005557;28;20690;-46
2023/07/17 06:37:11;;;;;;;7.55;3.40;;;;;;;18.20;100.00;101189.47;5006268;28;20204;-46
2023/07/17 06:39:37;;;;;;;5.82;3.42;;;;;;;18.49;100.00;101188.41;5007108;28;20648;-47
2023/07/17 06:42:03;;;;;;;8.18;4.68;;;;;;;18.50;100.00;101192.03;5006575;28;20231;-46
2023/07/17 06:44:29;;;;;;;8.77;3.28;;;;;;;18.47;100.00;101190.34;5021155;28;20553;-47
2023/07/17 06:46:55;;;;;;;6.40;3.20;;;;;;;18.61;100.00;101192.19;5006613;28;20184;-46
2023/07/17 06:49:20;;;;;;;6.63;3.38;;;;;;;18.69;98.95;101191.66;5008179;28;20631;-47
2023/07/17 06:51:45;;;;;;;4.97;2.80;;;;;;;18.86;96.81;101177.84;5007046;28;20196;-45
2023/07/17 06:54:11;;;;;;;7.13;3.35;;;;;;;18.71;96.16;101185.16;5006556;28;20203;-46
2023/07/17 06:56:36;;;;;;;6.35;3.00;;;;;;;19.03;94.91;101192.16;5006413;28;20234;-45
2023/07/17 06:59:02;;;;;;;6.00;3.05;;;;;;;19.07;93.43;101188.25;5005860;28;20168;-46
2023/07/17 07:01:27;;;;;;;6.07;2.90;;;;;;;19.00;91.32;101185.09;5009430;28;20219;-46
2023/07/17 07:03:53;;;;;;;6.28;2.90;;;;;;;19.24;89.83;101181.63;5006975;28;20189;-46
2023/07/17 07:06:18;;;;;;;10.18;3.38;;;;;;;19.12;89.06;101188.81;5007890;28;20743;-44
2023/07/17 07:08:44;;;;;;;10.63;3.20;;;;;;;19.34;87.06;101180.91;5007550;28;20254;-45
2023/07/17 07:11:13;;;;;;;10.10;3.53;;;;;;;19.36;86.92;101175.38;5005788;28;20661;-46
2023/07/17 07:13:42;;;;;;;7.07;3.00;;;;;;;19.37;86.27;101174.38;5003905;28;20204;-46
2023/07/17 07:16:08;;;;;;;5.65;2.45;;;;;;;19.38;85.52;101181.56;5005432;28;20196;-46
2023/07/17 07:18:34;;;;;;;6.55;2.83;;;;;;;19.68;84.44;101180.41;5006525;28;20246;-46
2023/07/17 07:20:59;;;;;;;11.40;3.40;;;;;;;19.88;83.02;101187.16;5007225;28;20180;-47
2023/07/17 07:23:25;;;;;;;9.65;3.13;;;;;;;19.75;82.38;101182.59;5005412;28;20248;-46
2023/07/17 07:25:50;;;;;;;8.02;2.90;;;;;;;19.98;82.78;101196.38;5007595;28;20196;-46
2023/07/17 07:28:16;;;;;;;7.97;2.97;;;;;;;19.91;81.56;101181.50;5007595;28;20276;-46
2023/07/17 07:30:41;;;;;;;7.20;2.85;;;;;;;19.53;81.44;101185.06;5007392;28;20372;-47
2023/07/17 07:33:06;;;;;;;7.55;2.75;;;;;;;20.03;80.23;101190.59;5007992;28;20640;-46
2023/07/17 07:35:32;;;;;;;8.27;3.15;;;;;;;20.47;79.65;101194.66;5006204;28;20238;-47
2023/07/17 07:37:57;;;;;;;5.10;2.40;;;;;;;19.48;78.86;101190.81;5007125;28;20173;-49
2023/07/17 07:40:23;;;;;;;7.90;3.10;;;;;;;18.73;79.36;101188.63;5006096;28;20639;-47
2023/07/17 07:42:48;;;;;;;8.27;2.70;;;;;;;19.01;79.44;101194.97;5006320;28;20627;-47
2023/07/17 07:45:14;;;;;;;9.23;3.10;;;;;;;18.88;79.31;101194.06;5009078;28;20203;-47
2023/07/17 07:47:40;;;;;;;9.77;3.00;;;;;;;18.56;78.63;101188.88;5010562;28;20720;-46
2023/07/17 07:50:07;;;;;;;6.78;2.45;;;;;;;18.76;78.50;101195.72;5009731;28;20267;-47
2023/07/17 07:52:33;;;;;;;6.38;2.60;;;;;;;19.01;77.51;101202.25;5009746;28;20234;-47
2023/07/17 07:54:59;;;;;;;6.28;2.70;;;;;;;19.34;76.49;101199.06;5008460;28;20192;-47
2023/07/17 07:57:24;;;;;;;9.80;3.22;;;;;;;19.27;75.36;101186.88;5010369;28;20292;-47
2023/07/17 07:59:50;;;;;;;7.95;2.90;;;;;;;19.33;75.65;101200.06;5010086;28;20507;-46
2023/07/17 08:02:17;;;;;;;9.82;2.60;;;;;;;19.86;74.30;101192.72;5010323;28;20238;-46
2023/07/17 08:04:42;;;;;;;8.68;3.03;;;;;;;19.67;73.61;101193.09;5009501;28;20184;-46
2023/07/17 08:07:08;;;;;;;7.22;2.75;;;;;;;19.40;74.32;101200.50;5009500;28;20242;-46
2023/07/17 08:09:33;;;;;;;10.18;2.65;;;;;;;19.19;74.12;101205.56;5010497;28;20176;-47
2023/07/17 08:11:59;;;;;;;6.57;2.67;;;;;;;19.04;75.06;101207.47;5008227;28;20204;-46
2023/07/17 08:14:25;;;;;;;7.72;2.70;;;;;;;19.37;74.71;101206.97;5009523;28;20255;-47
2023/07/17 08:16:51;;;;;;;8.48;2.90;;;;;;;19.83;73.40;101192.03;5008821;28;20255;-46
2023/07/17 08:19:18;;;;;;;5.65;2.53;;;;;;;19.75;72.62;101201.63;5005106;28;20194;-46
2023/07/17 08:21:44;;;;;;;8.38;2.80;;;;;;;20.39;71.22;101195.22;5008104;28;20544;-46
2023/07/17 08:24:10;;;;;;;7.50;2.22;;;;;;;20.01;69.38;101179.84;5008642;28;20192;-46
2023/07/17 08:26:39;;;;;;;9.85;3.00;;;;;;;20.08;69.52;101186.59;5007891;28;20200;-47
2023/07/17 08:29:05;;;;;;;7.57;2.90;;;;;;;19.38;69.79;101175.28;5008813;28;20259;-46
2023/07/17 08:31:34;;;;;;;6.57;2.85;;;;;;;19.30;70.03;101187.53;5009494;28;20219;-47
2023/07/17 08:34:00;;;;;;;8.02;2.58;;;;;;;19.19;70.86;101191.97;5004963;28;20189;-46
2023/07/17 08:36:28;;;;;;;7.93;2.47;;;;;;;18.93;71.66;101205.47;5008204;28;20198;-46
2023/07/17 08:38:53;;;;;;;9.32;2.75;;;;;;;18.41;73.28;101217.03;5008583;28;20177;-46
2023/07/17 08:41:19;;;;;;;7.68;3.30;;;;;;;18.51;74.58;101212.75;5007342;28;20192;-45
2023/07/17 08:43:44;;;;;;;7.82;2.95;;;;;;;19.38;74.33;101218.75;5004109;28;20674;-46
2023/07/17 08:46:12;;;;;;;8.52;2.42;;;;;;;20.25;71.96;101206.28;5008968;28;20228;-46
2023/07/17 08:48:38;;;;;;;9.05;2.88;;;;;;;20.08;70.55;101200.19;5007971;28;20699;-45
2023/07/17 08:51:05;;;;;;;7.55;2.70;;;;;;;19.81;70.01;101186.75;5007272;28;20181;-46
2023/07/17 08:53:33;;;;;;;12.10;2.97;;;;;;;19.75;70.31;101196.19;5008464;28;20180;-47
2023/07/17 08:55:59;;;;;;;7.85;2.85;;;;;;;19.57;70.37;101186.59;5007232;28;20246;-46
2023/07/17 08:58:27;;;;;;;9.38;2.67;;;;;;;19.67;70.31;101190.38;5009305;28;20658;-46
2023/07/17 09:00:53;;;;;;;6.65;2.63;;;;;;;20.41;68.82;101186.97;5009663;28;20226;-46
2023/07/17 09:03:19;;;;;;;9.40;2.53;;;;;;;20.28;67.99;101184.25;5008525;28;20620;-46
2023/07/17 09:05:44;;;;;;;7.47;2.72;;;;;;;20.94;67.29;101188.38;5008146;28;20212;-46
2023/07/17 09:08:12;;;;;;;9.95;2.83;;;;;;;21.23;66.54;101168.06;5007098;28;20172;-45
2023/07/17 09:10:38;;;;;;;6.90;2.80;;;;;;;21.21;66.77;101181.81;5008222;28;20688;-46
2023/07/17 09:13:04;;;;;;;5.53;2.33;;;;;;;21.40;65.15;101163.00;5007206;28;20173;-45
2023/07/17 09:15:32;;;;;;;5.68;2.33;;;;;;;21.62;64.41;101158.63;5006583;28;20215;-45
2023/07/17 09:17:58;;;;;;;7.25;2.40;;;;;;;21.93;63.90;101167.06;5007770;28;20176;-45
2023/07/17 09:20:24;;;;;;;11.88;2.72;;;;;;;21.05;63.43;101157.59;5007932;28;20219;-45
2023/07/17 09:22:53;;;;;;;7.43;2.42;;;;;;;20.52;64.16;101166.09;5007321;28;20214;-45
2023/07/17 09:25:19;;;;;;;7.15;2.35;;;;;;;20.95;64.61;101168.34;5007896;28;20192;-46
2023/07/17 09:27:49;;;;;;;6.05;2.40;;;;;;;21.52;62.41;101149.47;5005841;28;20196;-45
2023/07/17 09:30:17;;;;;;;7.70;2.22;;;;;;;21.14;61.36;101145.13;5008521;28;20176;-46
2023/07/17 09:32:44;;;;;;;7.18;2.15;;;;;;;21.23;59.77;101127.19;5006902;28;20278;-46
2023/07/17 09:35:13;;;;;;;5.22;2.38;;;;;;;21.12;59.48;101125.28;5007148;28;20200;-46
2023/07/17 09:37:44;;;;;;;8.43;2.20;;;;;;;20.26;60.89;101143.56;5007754;28;20191;-45
2023/07/17 09:40:13;;;;;;;6.53;2.53;;;;;;;20.51;61.59;101145.34;5008586;28;20592;-46
2023/07/17 09:42:53;;;;;;;5.63;2.40;;;;;;;20.51;62.17;101158.94;5008903;28;20206;-45
2023/07/17 09:45:19;;;;;;;7.07;2.50;;;;;;;20.16;63.25;101173.31;5008701;28;20203;-46
2023/07/17 09:47:49;;;;;;;7.80;2.58;;;;;;;20.15;63.61;101179.72;5007404;28;20188;-49
2023/07/17 09:50:16;;;;;;;5.53;2.67;;;;;;;19.63;64.42;101182.56;5008075;28;20701;-48
2023/07/17 09:52:43;;;;;;;8.82;2.40;;;;;;;19.61;66.04;101200.81;5006735;28;20546;-49
2023/07/17 09:55:08;;;;;;;6.25;2.25;;;;;;;19.63;65.14;101188.84;5007766;28;20207;-50
2023/07/17 09:57:36;;;;;;;7.05;2.60;;;;;;;19.68;65.28;101202.16;5007654;28;20184;-49
2023/07/17 10:00:18;;;;;;;7.20;2.50;;;;;;;19.51;64.88;101201.47;5007490;28;20404;-50
2023/07/17 10:03:17;;;;;;;7.68;2.78;;;;;;;19.22;66.89;101216.19;5006326;28;20326;-50
2023/07/17 10:05:43;;;;;;;7.30;2.60;;;;;;;19.10;68.42;101218.78;5006716;28;20243;-48
2023/07/17 10:08:10;;;;;;;8.27;3.03;;;;;;;19.01;69.11;101235.69;5007620;28;20271;-49
2023/07/17 10:10:37;;;;;;;9.80;2.75;;;;;;;20.01;68.90;101230.69;5007770;28;20234;-52
2023/07/17 10:13:03;;;;;;;8.20;2.35;;;;;;;20.83;66.73;101217.44;5007968;28;20201;-49
2023/07/17 10:15:29;;;;;;;7.05;2.70;;;;;;;20.39;66.49;101206.09;5008784;28;20215;-48
2023/07/17 10:17:59;;;;;;;7.88;2.70;;;;;;;20.29;67.05;101226.81;5007152;28;20195;-50
2023/07/17 10:20:28;;;;;;;9.98;2.88;;;;;;;21.09;66.04;101208.13;5007150;28;20543;-48
2023/07/17 10:22:54;;;;;;;9.85;3.05;;;;;;;21.42;63.73;101181.16;5007043;28;20222;-49
2023/07/17 10:25:19;;;;;;;7.50;2.72;;;;;;;22.04;61.78;101163.47;5008747;28;20191;-51
2023/07/17 10:27:50;;;;;;;8.93;2.50;;;;;;;21.51;61.83;101164.06;5009256;28;20195;-49
2023/07/17 10:30:24;;;;;;;9.05;2.55;;;;;;;20.95;62.00;101159.31;5007933;28;20186;-49
2023/07/17 10:33:13;;;;;;;6.30;2.58;;;;;;;20.45;63.43;101185.75;5005726;28;20187;-49
2023/07/17 10:35:52;;;;;;;10.90;3.00;;;;;;;19.96;66.31;101214.66;5004770;28;20745;-48
2023/07/17 10:38:29;;;;;;;6.70;2.22;;;;;;;19.17;70.20;101254.53;5007995;28;20184;-49
2023/07/17 10:41:20;;;;;;;6.20;2.65;;;;;;;19.01;72.40;101279.16;5009141;28;20180;-49
2023/07/17 10:43:51;;;;;;;8.45;2.92;;;;;;;19.30;73.03;101276.31;5001529;28;20200;-49
2023/07/17 10:46:17;;;;;;;7.22;2.55;;;;;;;18.98;72.01;101270.31;5006083;28;20223;-50
2023/07/17 10:48:42;;;;;;;10.10;2.40;;;;;;;19.03;72.67;101270.91;5008098;28;20646;-49
2023/07/17 10:51:08;;;;;;;8.35;3.00;;;;;;;18.94;74.55;101280.53;5006897;28;20268;-48
2023/07/17 10:53:33;;;;;;;6.63;2.40;;;;;;;18.88;75.79;101292.66;5005968;28;20192;-49
2023/07/17 10:55:59;;;;;;;5.43;2.40;;;;;;;19.02;76.81;101297.22;5006445;28;20211;-49
2023/07/17 10:58:25;;;;;;;4.28;1.92;;;;;;;18.99;75.35;101294.66;5010957;28;20173;-44
2023/07/17 11:00:51;;;;;;;5.32;1.92;;;;;;;18.97;75.13;101287.59;5009132;28;20204;-47
2023/07/17 11:03:18;;;;;;;5.55;2.50;;;;;;;18.30;76.64;101315.38;5052015;22;20230;-47
2023/07/17 11:05:45;;;;;;;8.13;2.70;;;;;;;17.83;79.67;101341.75;5024342;28;20683;-49
2023/07/17 11:08:12;;;;;;;5.53;2.60;;;;;;;17.54;82.40;101338.06;5022968;28;20630;-46
2023/07/17 11:10:43;;;;;;;4.55;1.95;;;;;;;17.63;85.72;101348.34;5025105;28;20680;-47
2023/07/17 11:13:10;;;;;;;7.15;2.60;;;;;;;17.73;87.50;101347.78;5020772;28;20168;-47
2023/07/17 11:15:37;;;;;;;7.75;3.08;;;;;;;17.60;88.55;101358.47;5038871;28;20295;-46